NKS9115 KRNO-KLAS
Flight info
| Callsign | NKS9115 |
|---|---|
| Flight time | 0h 57m |
| Altitude | 39000 |
| Route | ZEFFR9 PESKE TQILA COKTL4 |
| Aircraft | A320/M-SDE3FGHIRWY/LB1 |
Departure
| Time | 2026-05-07 19:16 |
|---|---|
| Airport | Reno Tahoe International Airport (KRNO) |
Arrival
| Time | 2026-05-07 20:13 |
|---|---|
| Airport | Harry Reid International Airport (KLAS) |
| Time | Latitude | Longitude | Altitude | Speed | Heading |
|---|---|---|---|---|---|
| 2026-05-07 18:02 | 39.50688 | -119.77220 | 4532 ft | 0 kts | 282° |
| 2026-05-07 19:05 | 39.50686 | -119.77210 | 4527 ft | 4 kts | 283° |
| 2026-05-07 19:05 | 39.50683 | -119.77177 | 4515 ft | 4 kts | 254° |
| 2026-05-07 19:05 | 39.50696 | -119.77153 | 4520 ft | 4 kts | 195° |
| 2026-05-07 19:05 | 39.50710 | -119.77150 | 4518 ft | 1 kts | 180° |
| 2026-05-07 19:06 | 39.50712 | -119.77150 | 4518 ft | 0 kts | 180° |
| 2026-05-07 19:09 | 39.50711 | -119.77150 | 4519 ft | 1 kts | 180° |
| 2026-05-07 19:09 | 39.50685 | -119.77150 | 4520 ft | 7 kts | 180° |
| 2026-05-07 19:10 | 39.50618 | -119.77151 | 4520 ft | 13 kts | 180° |
| 2026-05-07 19:10 | 39.50519 | -119.77150 | 4520 ft | 13 kts | 180° |
| 2026-05-07 19:10 | 39.50413 | -119.77151 | 4519 ft | 18 kts | 180° |
| 2026-05-07 19:10 | 39.50270 | -119.77152 | 4520 ft | 23 kts | 180° |
| 2026-05-07 19:11 | 39.50102 | -119.77151 | 4519 ft | 26 kts | 180° |
| 2026-05-07 19:11 | 39.49913 | -119.77152 | 4519 ft | 27 kts | 180° |
| 2026-05-07 19:11 | 39.49765 | -119.77152 | 4518 ft | 15 kts | 180° |
| 2026-05-07 19:11 | 39.49639 | -119.77154 | 4517 ft | 21 kts | 181° |
| 2026-05-07 19:12 | 39.49479 | -119.77156 | 4518 ft | 25 kts | 179° |
| 2026-05-07 19:12 | 39.49298 | -119.77154 | 4520 ft | 26 kts | 179° |
| 2026-05-07 19:12 | 39.49105 | -119.77155 | 4519 ft | 27 kts | 180° |
| 2026-05-07 19:12 | 39.48977 | -119.77156 | 4522 ft | 12 kts | 181° |
| 2026-05-07 19:13 | 39.48924 | -119.77099 | 4520 ft | 14 kts | 94° |
| 2026-05-07 19:13 | 39.48923 | -119.77040 | 4520 ft | 0 kts | 90° |
| 2026-05-07 19:13 | 39.48923 | -119.77037 | 4520 ft | 2 kts | 90° |
| 2026-05-07 19:14 | 39.48923 | -119.76992 | 4519 ft | 8 kts | 89° |
| 2026-05-07 19:14 | 39.48924 | -119.76890 | 4518 ft | 14 kts | 89° |
| 2026-05-07 19:14 | 39.48925 | -119.76799 | 4517 ft | 2 kts | 89° |
| 2026-05-07 19:14 | 39.48925 | -119.76746 | 4516 ft | 9 kts | 89° |
| 2026-05-07 19:15 | 39.48963 | -119.76681 | 4515 ft | 8 kts | 9° |
| 2026-05-07 19:15 | 39.48980 | -119.76681 | 4515 ft | 0 kts | 1° |
| 2026-05-07 19:15 | 39.48992 | -119.76680 | 4516 ft | 10 kts | 1° |
| 2026-05-07 19:16 | 39.49372 | -119.76681 | 4523 ft | 99 kts | 360° |
| 2026-05-07 19:16 | 39.50322 | -119.76680 | 4557 ft | 163 kts | 359° |
| 2026-05-07 19:16 | 39.51468 | -119.76672 | 5351 ft | 165 kts | 359° |
| 2026-05-07 19:16 | 39.52648 | -119.76661 | 5980 ft | 181 kts | 357° |
| 2026-05-07 19:17 | 39.53979 | -119.76660 | 6468 ft | 200 kts | 357° |
| 2026-05-07 19:17 | 39.55452 | -119.76656 | 6888 ft | 224 kts | 358° |
| 2026-05-07 19:17 | 39.57076 | -119.76642 | 7378 ft | 241 kts | 358° |
| 2026-05-07 19:17 | 39.58753 | -119.76385 | 8234 ft | 249 kts | 19° |
| 2026-05-07 19:18 | 39.60147 | -119.75026 | 8801 ft | 257 kts | 53° |
| 2026-05-07 19:18 | 39.60782 | -119.72833 | 8873 ft | 270 kts | 83° |
| 2026-05-07 19:18 | 39.60806 | -119.70361 | 8987 ft | 278 kts | 94° |
| 2026-05-07 19:18 | 39.60660 | -119.67850 | 8982 ft | 279 kts | 95° |
| 2026-05-07 19:19 | 39.60524 | -119.65343 | 8985 ft | 279 kts | 93° |
| 2026-05-07 19:19 | 39.60355 | -119.62841 | 8979 ft | 279 kts | 105° |
| 2026-05-07 19:19 | 39.59399 | -119.60701 | 9002 ft | 283 kts | 139° |
| 2026-05-07 19:19 | 39.57824 | -119.59015 | 9706 ft | 299 kts | 143° |
| 2026-05-07 19:20 | 39.56175 | -119.57285 | 10542 ft | 316 kts | 143° |
| 2026-05-07 19:20 | 39.54427 | -119.55440 | 11288 ft | 330 kts | 142° |
| 2026-05-07 19:20 | 39.52630 | -119.53530 | 12244 ft | 337 kts | 142° |
| 2026-05-07 19:20 | 39.50793 | -119.51578 | 13145 ft | 346 kts | 143° |
| 2026-05-07 19:21 | 39.48915 | -119.49587 | 14060 ft | 352 kts | 143° |
| 2026-05-07 19:21 | 39.47000 | -119.47564 | 14902 ft | 357 kts | 142° |
| 2026-05-07 19:21 | 39.45086 | -119.45544 | 15725 ft | 362 kts | 142° |
| 2026-05-07 19:21 | 39.43122 | -119.43468 | 16571 ft | 367 kts | 142° |
| 2026-05-07 19:22 | 39.41134 | -119.41364 | 17396 ft | 372 kts | 142° |
| 2026-05-07 19:22 | 39.39115 | -119.39227 | 18208 ft | 378 kts | 142° |
| 2026-05-07 19:22 | 39.37064 | -119.37063 | 18947 ft | 383 kts | 142° |
| 2026-05-07 19:22 | 39.34991 | -119.34879 | 19725 ft | 387 kts | 141° |
| 2026-05-07 19:23 | 39.32891 | -119.32669 | 20514 ft | 391 kts | 141° |
| 2026-05-07 19:23 | 39.30772 | -119.30437 | 21282 ft | 395 kts | 141° |
| 2026-05-07 19:23 | 39.28636 | -119.28190 | 22021 ft | 398 kts | 141° |
| 2026-05-07 19:23 | 39.26474 | -119.25920 | 22760 ft | 402 kts | 141° |
| 2026-05-07 19:24 | 39.24283 | -119.23623 | 23493 ft | 406 kts | 140° |
| 2026-05-07 19:24 | 39.22077 | -119.21314 | 24116 ft | 410 kts | 140° |
| 2026-05-07 19:24 | 39.19855 | -119.18988 | 24727 ft | 413 kts | 140° |
| 2026-05-07 19:24 | 39.17614 | -119.16644 | 25341 ft | 417 kts | 140° |
| 2026-05-07 19:25 | 39.15355 | -119.14281 | 25949 ft | 420 kts | 140° |
| 2026-05-07 19:25 | 39.13108 | -119.11931 | 26548 ft | 423 kts | 140° |
| 2026-05-07 19:25 | 39.10816 | -119.09531 | 27132 ft | 426 kts | 140° |
| 2026-05-07 19:25 | 39.08502 | -119.07111 | 27717 ft | 430 kts | 140° |
| 2026-05-07 19:26 | 39.06166 | -119.04675 | 28304 ft | 434 kts | 140° |
| 2026-05-07 19:26 | 39.03816 | -119.02230 | 28870 ft | 437 kts | 140° |
| 2026-05-07 19:26 | 39.01431 | -118.99756 | 29444 ft | 441 kts | 140° |
| 2026-05-07 19:26 | 38.99034 | -118.97272 | 30014 ft | 444 kts | 140° |
| 2026-05-07 19:27 | 38.96633 | -118.94725 | 30529 ft | 448 kts | 138° |
| 2026-05-07 19:27 | 38.94295 | -118.92045 | 30996 ft | 452 kts | 136° |
| 2026-05-07 19:27 | 38.92003 | -118.89264 | 31508 ft | 455 kts | 135° |
| 2026-05-07 19:27 | 38.89740 | -118.86441 | 32204 ft | 453 kts | 134° |
| 2026-05-07 19:28 | 38.87489 | -118.83627 | 32954 ft | 450 kts | 135° |
| 2026-05-07 19:28 | 38.85240 | -118.80843 | 33724 ft | 448 kts | 135° |
| 2026-05-07 19:28 | 38.82989 | -118.78096 | 34434 ft | 445 kts | 135° |
| 2026-05-07 19:28 | 38.80736 | -118.75387 | 35067 ft | 443 kts | 136° |
| 2026-05-07 19:29 | 38.78515 | -118.72744 | 35671 ft | 441 kts | 136° |
| 2026-05-07 19:29 | 38.76265 | -118.70080 | 36260 ft | 439 kts | 136° |
| 2026-05-07 19:29 | 38.74029 | -118.67430 | 36858 ft | 437 kts | 136° |
| 2026-05-07 19:29 | 38.71805 | -118.64786 | 37427 ft | 435 kts | 136° |
| 2026-05-07 19:30 | 38.69594 | -118.62149 | 37975 ft | 434 kts | 136° |
| 2026-05-07 19:30 | 38.67390 | -118.59517 | 38547 ft | 432 kts | 136° |
| 2026-05-07 19:30 | 38.65190 | -118.56891 | 39035 ft | 432 kts | 136° |
| 2026-05-07 19:30 | 38.62991 | -118.54272 | 39135 ft | 431 kts | 136° |
| 2026-05-07 19:31 | 38.58628 | -118.49088 | 39151 ft | 425 kts | 136° |
| 2026-05-07 19:31 | 38.54298 | -118.43951 | 39134 ft | 424 kts | 136° |
| 2026-05-07 19:32 | 38.50002 | -118.38856 | 39113 ft | 423 kts | 136° |
| 2026-05-07 19:32 | 38.45681 | -118.33745 | 39088 ft | 425 kts | 136° |
| 2026-05-07 19:33 | 38.41341 | -118.28621 | 39067 ft | 426 kts | 136° |
| 2026-05-07 19:33 | 38.36987 | -118.23492 | 39042 ft | 426 kts | 136° |
| 2026-05-07 19:34 | 38.32628 | -118.18363 | 39055 ft | 426 kts | 136° |
| 2026-05-07 19:34 | 38.28266 | -118.13249 | 39048 ft | 426 kts | 136° |
| 2026-05-07 19:35 | 38.23935 | -118.08176 | 39037 ft | 425 kts | 136° |
| 2026-05-07 19:35 | 38.19579 | -118.03079 | 39050 ft | 425 kts | 136° |
| 2026-05-07 19:36 | 38.15227 | -117.97991 | 39037 ft | 425 kts | 136° |
| 2026-05-07 19:36 | 38.10868 | -117.92907 | 39038 ft | 425 kts | 136° |
| 2026-05-07 19:37 | 38.06497 | -117.87816 | 39035 ft | 425 kts | 136° |
| 2026-05-07 19:37 | 38.02138 | -117.82753 | 39040 ft | 425 kts | 136° |
| 2026-05-07 19:38 | 37.97808 | -117.77732 | 39036 ft | 425 kts | 136° |
| 2026-05-07 19:38 | 37.93451 | -117.72675 | 39036 ft | 424 kts | 136° |
| 2026-05-07 19:39 | 37.89094 | -117.67628 | 39032 ft | 424 kts | 136° |
| 2026-05-07 19:39 | 37.85473 | -117.63445 | 39034 ft | 424 kts | 136° |
| 2026-05-07 19:40 | 37.80377 | -117.57585 | 39033 ft | 423 kts | 136° |
| 2026-05-07 19:40 | 37.76025 | -117.52575 | 39052 ft | 423 kts | 136° |
| 2026-05-07 19:41 | 37.71670 | -117.47570 | 39044 ft | 422 kts | 136° |
| 2026-05-07 19:41 | 37.67321 | -117.42585 | 39047 ft | 422 kts | 136° |
| 2026-05-07 19:42 | 37.62988 | -117.37634 | 39047 ft | 422 kts | 136° |
| 2026-05-07 19:42 | 37.58625 | -117.32658 | 39043 ft | 423 kts | 136° |
| 2026-05-07 19:43 | 37.54265 | -117.27691 | 39047 ft | 422 kts | 136° |
| 2026-05-07 19:43 | 37.49908 | -117.22724 | 39054 ft | 422 kts | 136° |
| 2026-05-07 19:44 | 37.45340 | -117.18087 | 39047 ft | 423 kts | 143° |
| 2026-05-07 19:44 | 37.40502 | -117.13871 | 39048 ft | 423 kts | 143° |
| 2026-05-07 19:45 | 37.35644 | -117.09681 | 39039 ft | 423 kts | 144° |
| 2026-05-07 19:45 | 37.31607 | -117.06196 | 39032 ft | 424 kts | 143° |
| 2026-05-07 19:46 | 37.26757 | -117.01980 | 39028 ft | 424 kts | 143° |
| 2026-05-07 19:46 | 37.21907 | -116.97767 | 39020 ft | 426 kts | 143° |
| 2026-05-07 19:47 | 37.19430 | -116.95623 | 39019 ft | 438 kts | 143° |
| 2026-05-07 19:47 | 37.16889 | -116.93425 | 38891 ft | 451 kts | 143° |
| 2026-05-07 19:47 | 37.14276 | -116.91166 | 38650 ft | 459 kts | 143° |
| 2026-05-07 19:47 | 37.11641 | -116.88896 | 38399 ft | 457 kts | 143° |
| 2026-05-07 19:48 | 37.09067 | -116.86689 | 38016 ft | 452 kts | 143° |
| 2026-05-07 19:48 | 37.06493 | -116.84478 | 37608 ft | 447 kts | 143° |
| 2026-05-07 19:48 | 37.03944 | -116.82282 | 37191 ft | 442 kts | 143° |
| 2026-05-07 19:48 | 37.01417 | -116.80106 | 36772 ft | 439 kts | 143° |
| 2026-05-07 19:49 | 36.98912 | -116.77954 | 36332 ft | 436 kts | 143° |
| 2026-05-07 19:49 | 36.96422 | -116.75816 | 35904 ft | 433 kts | 143° |
| 2026-05-07 19:49 | 36.93946 | -116.73690 | 35423 ft | 430 kts | 143° |
| 2026-05-07 19:49 | 36.91479 | -116.71578 | 34957 ft | 428 kts | 143° |
| 2026-05-07 19:50 | 36.89029 | -116.69485 | 34470 ft | 426 kts | 143° |
| 2026-05-07 19:50 | 36.86586 | -116.67397 | 33953 ft | 425 kts | 143° |
| 2026-05-07 19:50 | 36.84146 | -116.65313 | 33412 ft | 423 kts | 143° |
| 2026-05-07 19:50 | 36.81727 | -116.63248 | 32905 ft | 420 kts | 143° |
| 2026-05-07 19:51 | 36.79319 | -116.61192 | 32410 ft | 418 kts | 143° |
| 2026-05-07 19:51 | 36.76927 | -116.59151 | 31914 ft | 416 kts | 143° |
| 2026-05-07 19:51 | 36.74567 | -116.57139 | 31439 ft | 414 kts | 143° |
| 2026-05-07 19:51 | 36.72195 | -116.55120 | 30953 ft | 412 kts | 143° |
| 2026-05-07 19:52 | 36.69808 | -116.53087 | 30501 ft | 424 kts | 143° |
| 2026-05-07 19:52 | 36.67354 | -116.50996 | 30003 ft | 430 kts | 143° |
| 2026-05-07 19:52 | 36.64982 | -116.48741 | 29488 ft | 427 kts | 135° |
| 2026-05-07 19:52 | 36.62951 | -116.46069 | 29039 ft | 423 kts | 128° |
| 2026-05-07 19:53 | 36.61006 | -116.43318 | 28597 ft | 421 kts | 128° |
| 2026-05-07 19:53 | 36.59078 | -116.40586 | 28151 ft | 418 kts | 128° |
| 2026-05-07 19:53 | 36.57160 | -116.37870 | 27714 ft | 416 kts | 129° |
| 2026-05-07 19:53 | 36.55253 | -116.35174 | 27260 ft | 413 kts | 129° |
| 2026-05-07 19:54 | 36.53384 | -116.32539 | 26813 ft | 411 kts | 129° |
| 2026-05-07 19:54 | 36.51497 | -116.29880 | 26339 ft | 408 kts | 129° |
| 2026-05-07 19:54 | 36.49623 | -116.27241 | 25873 ft | 405 kts | 129° |
| 2026-05-07 19:54 | 36.47767 | -116.24627 | 25388 ft | 403 kts | 129° |
| 2026-05-07 19:55 | 36.45919 | -116.22022 | 24895 ft | 400 kts | 129° |
| 2026-05-07 19:55 | 36.44083 | -116.19436 | 24388 ft | 398 kts | 129° |
| 2026-05-07 19:55 | 36.42257 | -116.16867 | 23885 ft | 396 kts | 129° |
| 2026-05-07 19:55 | 36.40435 | -116.14308 | 23341 ft | 394 kts | 129° |
| 2026-05-07 19:56 | 36.38627 | -116.11770 | 22829 ft | 391 kts | 129° |
| 2026-05-07 19:56 | 36.36834 | -116.09259 | 22323 ft | 387 kts | 129° |
| 2026-05-07 19:56 | 36.35058 | -116.06778 | 21828 ft | 382 kts | 129° |
| 2026-05-07 19:56 | 36.33299 | -116.04319 | 21331 ft | 379 kts | 129° |
| 2026-05-07 19:57 | 36.31560 | -116.01890 | 20835 ft | 375 kts | 129° |
| 2026-05-07 19:57 | 36.29835 | -115.99479 | 20371 ft | 372 kts | 129° |
| 2026-05-07 19:57 | 36.28122 | -115.97086 | 19889 ft | 369 kts | 129° |
| 2026-05-07 19:57 | 36.26422 | -115.94710 | 19420 ft | 367 kts | 129° |
| 2026-05-07 19:58 | 36.24765 | -115.92378 | 19088 ft | 363 kts | 128° |
| 2026-05-07 19:58 | 36.23156 | -115.89962 | 18999 ft | 364 kts | 126° |
| 2026-05-07 19:58 | 36.21584 | -115.87480 | 18476 ft | 369 kts | 125° |
| 2026-05-07 19:58 | 36.20043 | -115.84984 | 18215 ft | 358 kts | 124° |
| 2026-05-07 19:59 | 36.18561 | -115.82573 | 18007 ft | 346 kts | 124° |
| 2026-05-07 19:59 | 36.17110 | -115.80226 | 17602 ft | 341 kts | 125° |
| 2026-05-07 19:59 | 36.15668 | -115.77915 | 17168 ft | 338 kts | 125° |
| 2026-05-07 19:59 | 36.14270 | -115.75589 | 16742 ft | 334 kts | 119° |
| 2026-05-07 20:00 | 36.13244 | -115.73038 | 16288 ft | 329 kts | 108° |
| 2026-05-07 20:00 | 36.12434 | -115.70395 | 15829 ft | 327 kts | 108° |
| 2026-05-07 20:00 | 36.11627 | -115.67769 | 15426 ft | 325 kts | 108° |
| 2026-05-07 20:00 | 36.10827 | -115.65171 | 15068 ft | 321 kts | 108° |
| 2026-05-07 20:01 | 36.10043 | -115.62614 | 14758 ft | 318 kts | 108° |
| 2026-05-07 20:01 | 36.09261 | -115.60059 | 14432 ft | 316 kts | 109° |
| 2026-05-07 20:01 | 36.08481 | -115.57528 | 14110 ft | 314 kts | 109° |
| 2026-05-07 20:01 | 36.07701 | -115.55014 | 13781 ft | 312 kts | 109° |
| 2026-05-07 20:02 | 36.06923 | -115.52503 | 13454 ft | 311 kts | 109° |
| 2026-05-07 20:02 | 36.06156 | -115.50031 | 13141 ft | 311 kts | 109° |
| 2026-05-07 20:02 | 36.05386 | -115.47542 | 12831 ft | 309 kts | 109° |
| 2026-05-07 20:02 | 36.04622 | -115.45073 | 12522 ft | 307 kts | 109° |
| 2026-05-07 20:03 | 36.03861 | -115.42610 | 12209 ft | 306 kts | 109° |
| 2026-05-07 20:03 | 36.03097 | -115.40150 | 11899 ft | 306 kts | 109° |
| 2026-05-07 20:03 | 36.02336 | -115.37697 | 11592 ft | 306 kts | 109° |
| 2026-05-07 20:03 | 36.01697 | -115.35206 | 11286 ft | 304 kts | 99° |
| 2026-05-07 20:04 | 36.01485 | -115.32619 | 10982 ft | 302 kts | 91° |
| 2026-05-07 20:04 | 36.01367 | -115.30029 | 10679 ft | 301 kts | 91° |
| 2026-05-07 20:04 | 36.01247 | -115.27458 | 10377 ft | 300 kts | 91° |
| 2026-05-07 20:04 | 36.01121 | -115.24894 | 10075 ft | 299 kts | 91° |
| 2026-05-07 20:05 | 36.00991 | -115.22328 | 9757 ft | 299 kts | 91° |
| 2026-05-07 20:05 | 36.00861 | -115.19776 | 9463 ft | 296 kts | 91° |
| 2026-05-07 20:05 | 36.00731 | -115.17286 | 9368 ft | 284 kts | 91° |
| 2026-05-07 20:05 | 36.00607 | -115.14910 | 9251 ft | 274 kts | 91° |
| 2026-05-07 20:06 | 36.00488 | -115.12592 | 9134 ft | 266 kts | 91° |
| 2026-05-07 20:06 | 36.00375 | -115.10376 | 9017 ft | 258 kts | 91° |
| 2026-05-07 20:06 | 36.00261 | -115.08174 | 8756 ft | 258 kts | 91° |
| 2026-05-07 20:06 | 36.00148 | -115.05961 | 8506 ft | 258 kts | 91° |
| 2026-05-07 20:07 | 36.00036 | -115.03754 | 8260 ft | 257 kts | 92° |
| 2026-05-07 20:07 | 35.99926 | -115.01551 | 8019 ft | 257 kts | 91° |
| 2026-05-07 20:07 | 35.99861 | -114.99346 | 7707 ft | 256 kts | 89° |
| 2026-05-07 20:07 | 35.99848 | -114.97140 | 7337 ft | 257 kts | 88° |
| 2026-05-07 20:08 | 35.99848 | -114.94931 | 7035 ft | 257 kts | 88° |
| 2026-05-07 20:08 | 36.00171 | -114.92789 | 6700 ft | 254 kts | 60° |
| 2026-05-07 20:08 | 36.01326 | -114.91174 | 6359 ft | 252 kts | 33° |
| 2026-05-07 20:08 | 36.02876 | -114.90288 | 6017 ft | 240 kts | 11° |
| 2026-05-07 20:09 | 36.04482 | -114.90295 | 5707 ft | 226 kts | 343° |
| 2026-05-07 20:09 | 36.05863 | -114.91132 | 5418 ft | 220 kts | 329° |
| 2026-05-07 20:09 | 36.06985 | -114.92375 | 5118 ft | 219 kts | 301° |
| 2026-05-07 20:10 | 36.07372 | -114.95985 | 4590 ft | 214 kts | 270° |
| 2026-05-07 20:10 | 36.07364 | -114.97796 | 4355 ft | 206 kts | 270° |
| 2026-05-07 20:10 | 36.07363 | -114.99519 | 4085 ft | 195 kts | 271° |
| 2026-05-07 20:10 | 36.07363 | -115.01162 | 3848 ft | 187 kts | 270° |
| 2026-05-07 20:11 | 36.07364 | -115.02739 | 3621 ft | 180 kts | 270° |
| 2026-05-07 20:11 | 36.07365 | -115.04280 | 3403 ft | 179 kts | 270° |
| 2026-05-07 20:11 | 36.07365 | -115.05809 | 3183 ft | 177 kts | 270° |
| 2026-05-07 20:11 | 36.07365 | -115.07248 | 2963 ft | 158 kts | 270° |
| 2026-05-07 20:12 | 36.07366 | -115.08544 | 2760 ft | 145 kts | 268° |
| 2026-05-07 20:12 | 36.07365 | -115.09762 | 2590 ft | 139 kts | 268° |
| 2026-05-07 20:12 | 36.07361 | -115.10938 | 2378 ft | 136 kts | 267° |
| 2026-05-07 20:12 | 36.07367 | -115.12096 | 2199 ft | 135 kts | 267° |
| 2026-05-07 20:13 | 36.07366 | -115.13246 | 2072 ft | 126 kts | 269° |
| 2026-05-07 20:13 | 36.07366 | -115.14125 | 2084 ft | 78 kts | 270° |
| 2026-05-07 20:13 | 36.07365 | -115.14587 | 2091 ft | 37 kts | 270° |
| 2026-05-07 20:13 | 36.07403 | -115.14898 | 2097 ft | 36 kts | 294° |
| 2026-05-07 20:14 | 36.07496 | -115.15094 | 2101 ft | 15 kts | 311° |
| 2026-05-07 20:14 | 36.07578 | -115.15160 | 2107 ft | 13 kts | 335° |
| 2026-05-07 20:14 | 36.07662 | -115.15210 | 2112 ft | 15 kts | 334° |
| 2026-05-07 20:14 | 36.07767 | -115.15270 | 2105 ft | 20 kts | 335° |
| 2026-05-07 20:15 | 36.07882 | -115.15336 | 2100 ft | 14 kts | 335° |
| 2026-05-07 20:15 | 36.07990 | -115.15399 | 2098 ft | 19 kts | 334° |
| 2026-05-07 20:15 | 36.08086 | -115.15454 | 2098 ft | 14 kts | 335° |
| 2026-05-07 20:15 | 36.08191 | -115.15515 | 2099 ft | 17 kts | 335° |
| 2026-05-07 20:16 | 36.08286 | -115.15571 | 2100 ft | 14 kts | 334° |
| 2026-05-07 20:16 | 36.08366 | -115.15617 | 2102 ft | 14 kts | 335° |
| 2026-05-07 20:16 | 36.08452 | -115.15665 | 2102 ft | 11 kts | 335° |
| 2026-05-07 20:16 | 36.08525 | -115.15623 | 2102 ft | 10 kts | 33° |
| 2026-05-07 20:17 | 36.08559 | -115.15601 | 2100 ft | 3 kts | 43° |
| 2026-05-07 20:17 | 36.08557 | -115.15562 | 2099 ft | 5 kts | 100° |
| 2026-05-07 20:17 | 36.08546 | -115.15514 | 2098 ft | 5 kts | 107° |
| 2026-05-07 20:17 | 36.08543 | -115.15504 | 2098 ft | 0 kts | 107° |